createdAt,value
2023-03-30T00:00:59.825Z,46.17
2023-03-30T00:03:28.377Z,49.70
2023-03-30T00:05:59.405Z,45.97
2023-03-30T00:08:28.374Z,46.45
2023-03-30T00:11:15.199Z,39.30
2023-03-30T00:13:55.255Z,37.30
2023-03-30T00:16:25.275Z,44.17
2023-03-30T00:18:54.147Z,44.42
2023-03-30T00:21:22.786Z,41.35
2023-03-30T00:23:57.024Z,39.78
2023-03-30T00:26:24.327Z,44.40
2023-03-30T00:28:54.568Z,39.25
2023-03-30T00:31:28.575Z,42.30
2023-03-30T00:33:56.287Z,38.42
2023-03-30T00:36:29.753Z,40.53
2023-03-30T00:38:56.932Z,43.95
2023-03-30T00:41:28.900Z,44.20
2023-03-30T00:44:37.604Z,37.92
2023-03-30T00:47:04.437Z,39.95
2023-03-30T00:49:36.215Z,40.55
2023-03-30T00:52:03.365Z,39.83
2023-03-30T00:54:30.690Z,45.22
2023-03-30T00:56:57.517Z,44.60
2023-03-30T00:59:24.370Z,41.60
2023-03-30T01:01:52.941Z,39.97
2023-03-30T01:04:20.758Z,41.33
2023-03-30T01:06:48.892Z,41.10
2023-03-30T01:09:16.573Z,41.05
2023-03-30T01:11:44.171Z,38.33
2023-03-30T01:14:15.505Z,37.70
2023-03-30T01:16:43.154Z,39.53
2023-03-30T01:19:21.991Z,38.78
2023-03-30T01:22:34.829Z,35.35
2023-03-30T01:25:38.439Z,38.00
2023-03-30T01:28:14.127Z,29.38
2023-03-30T01:31:02.397Z,37.70
2023-03-30T01:33:51.207Z,32.63
2023-03-30T01:36:34.450Z,40.20
2023-03-30T01:39:16.472Z,36.08
2023-03-30T01:41:52.443Z,45.88
2023-03-30T01:45:04.314Z,41.33
2023-03-30T01:47:53.160Z,38.97
2023-03-30T01:50:33.501Z,37.53
2023-03-30T01:53:14.916Z,40.00
2023-03-30T01:55:47.760Z,38.55
2023-03-30T01:58:30.922Z,35.38
2023-03-30T02:01:04.321Z,36.47
2023-03-30T02:03:38.916Z,42.05
2023-03-30T02:06:25.740Z,37.60
2023-03-30T02:08:54.858Z,37.72
2023-03-30T02:11:23.778Z,36.25
2023-03-30T02:13:52.898Z,33.85
2023-03-30T02:16:28.523Z,34.22
2023-03-30T02:18:55.782Z,34.15
2023-03-30T02:21:24.625Z,40.25
2023-03-30T02:23:55.431Z,36.80
2023-03-30T02:26:23.031Z,36.70
2023-03-30T02:28:51.624Z,33.67
2023-03-30T02:31:18.630Z,33.88
2023-03-30T02:34:04.047Z,33.13
2023-03-30T02:36:56.835Z,31.98
2023-03-30T02:39:50.105Z,33.90
2023-03-30T02:42:34.572Z,35.10
2023-03-30T02:45:16.642Z,35.55
2023-03-30T02:47:52.394Z,32.55
2023-03-30T02:50:31.915Z,33.10
2023-03-30T02:53:10.841Z,37.85
2023-03-30T02:55:46.091Z,28.40
2023-03-30T02:58:34.660Z,34.80
2023-03-30T03:01:14.668Z,31.38
2023-03-30T03:03:48.618Z,32.13
2023-03-30T03:06:16.412Z,29.27
2023-03-30T03:08:47.828Z,32.97
2023-03-30T03:11:16.148Z,29.20
2023-03-30T03:13:43.123Z,28.02
2023-03-30T03:16:12.156Z,31.23
2023-03-30T03:18:42.270Z,34.03
2023-03-30T03:21:10.413Z,29.83
2023-03-30T03:23:37.618Z,28.35
2023-03-30T03:26:05.127Z,33.38
2023-03-30T03:28:32.036Z,33.10
2023-03-30T03:31:00.070Z,31.08
2023-03-30T03:33:27.641Z,29.15
2023-03-30T03:35:59.170Z,26.02
2023-03-30T03:38:29.919Z,31.35
2023-03-30T03:43:25.705Z,28.60
2023-03-30T03:45:53.026Z,27.80
2023-03-30T03:48:22.336Z,29.88
2023-03-30T03:50:57.778Z,30.38
2023-03-30T03:53:29.555Z,27.17
2023-03-30T03:55:56.449Z,27.60
2023-03-30T03:58:26.574Z,26.23
2023-03-30T04:00:58.640Z,25.95
2023-03-30T04:03:25.833Z,26.42
2023-03-30T04:05:52.644Z,23.80
2023-03-30T04:08:19.526Z,26.85
2023-03-30T04:10:46.390Z,25.92
2023-03-30T04:13:13.063Z,24.10
2023-03-30T04:15:39.953Z,27.20
2023-03-30T04:18:08.466Z,26.38
2023-03-30T04:20:35.197Z,27.77
2023-03-30T04:23:02.114Z,27.20
2023-03-30T04:25:29.203Z,24.80
2023-03-30T04:27:57.287Z,30.48
2023-03-30T04:30:24.973Z,28.23
2023-03-30T04:33:02.769Z,28.90
2023-03-30T04:35:34.111Z,33.38
2023-03-30T04:38:02.674Z,30.02
2023-03-30T04:40:30.223Z,26.00
2023-03-30T04:43:02.441Z,34.50
2023-03-30T04:45:30.370Z,30.08
2023-03-30T04:47:59.491Z,32.22
2023-03-30T04:50:26.772Z,28.25
2023-03-30T04:52:53.497Z,32.85
2023-03-30T04:55:20.248Z,39.47
2023-03-30T04:57:48.661Z,39.67
2023-03-30T05:00:16.204Z,48.03
2023-03-30T05:02:43.539Z,44.80
2023-03-30T05:05:10.538Z,32.63
2023-03-30T05:07:37.246Z,34.17
2023-03-30T05:10:04.144Z,32.13
2023-03-30T05:12:31.138Z,34.08
2023-03-30T05:14:57.952Z,30.83
2023-03-30T05:17:24.808Z,31.88
2023-03-30T05:19:51.556Z,30.38
2023-03-30T05:22:18.283Z,26.75
2023-03-30T05:24:44.976Z,25.48
2023-03-30T05:27:13.232Z,29.50
2023-03-30T05:29:40.006Z,24.98
2023-03-30T05:32:06.869Z,27.17
2023-03-30T05:34:35.143Z,30.55
2023-03-30T05:37:01.858Z,27.45
2023-03-30T05:39:28.717Z,26.77
2023-03-30T05:41:55.452Z,31.30
2023-03-30T05:44:22.625Z,35.70
2023-03-30T05:46:49.680Z,26.42
2023-03-30T05:49:16.434Z,27.23
2023-03-30T05:51:43.098Z,29.35
2023-03-30T05:54:13.166Z,25.83
2023-03-30T05:56:42.170Z,25.05
2023-03-30T05:59:10.265Z,27.38
2023-03-30T06:01:37.654Z,27.15
2023-03-30T06:04:04.677Z,27.77
2023-03-30T06:06:31.486Z,26.67
2023-03-30T06:08:58.177Z,24.27
2023-03-30T06:11:24.976Z,28.98
2023-03-30T06:13:51.903Z,29.02
2023-03-30T06:16:18.843Z,26.23
2023-03-30T06:18:46.045Z,26.40
2023-03-30T06:21:12.793Z,26.58
2023-03-30T06:23:40.927Z,25.70
2023-03-30T06:26:08.121Z,24.55
2023-03-30T06:28:35.116Z,23.58
2023-03-30T06:31:07.008Z,23.90
2023-03-30T06:33:33.693Z,24.27
2023-03-30T06:36:00.402Z,25.95
2023-03-30T06:38:27.624Z,26.55
2023-03-30T06:40:54.313Z,21.20
2023-03-30T06:43:24.060Z,25.92
2023-03-30T06:45:52.728Z,29.17
2023-03-30T06:48:23.804Z,28.88
2023-03-30T06:50:51.511Z,20.65
2023-03-30T06:53:18.882Z,25.45
2023-03-30T06:55:50.312Z,20.10
2023-03-30T06:58:17.115Z,27.90
2023-03-30T07:00:43.922Z,27.88
2023-03-30T07:03:10.714Z,27.00
2023-03-30T07:05:37.745Z,33.13
2023-03-30T07:08:05.976Z,28.05
2023-03-30T07:10:32.945Z,25.85
2023-03-30T07:12:59.645Z,23.38
2023-03-30T07:15:26.480Z,24.00
2023-03-30T07:17:53.570Z,28.17
2023-03-30T07:20:20.504Z,25.73
2023-03-30T07:22:47.176Z,28.48
2023-03-30T07:25:14.431Z,23.08
2023-03-30T07:27:41.361Z,24.35
2023-03-30T07:30:20.724Z,21.05
2023-03-30T07:32:50.635Z,23.08
2023-03-30T07:35:18.437Z,23.35
2023-03-30T07:37:45.760Z,23.02
2023-03-30T07:40:12.803Z,18.77
2023-03-30T07:42:39.991Z,20.33
2023-03-30T07:45:07.515Z,22.80
2023-03-30T07:47:34.288Z,22.73
2023-03-30T07:50:01.201Z,24.35
2023-03-30T07:52:28.221Z,25.38
2023-03-30T07:54:55.568Z,29.40
2023-03-30T07:57:22.809Z,26.38
2023-03-30T07:59:49.737Z,20.80
2023-03-30T08:02:17.646Z,24.98
2023-03-30T08:04:44.634Z,23.75
2023-03-30T08:07:12.714Z,17.50
2023-03-30T08:09:39.508Z,26.15
2023-03-30T08:12:06.819Z,25.90
2023-03-30T08:14:33.577Z,24.55
2023-03-30T08:17:00.702Z,21.13
2023-03-30T08:19:28.575Z,17.00
2023-03-30T08:21:57.058Z,18.83
2023-03-30T08:24:23.911Z,18.33
2023-03-30T08:26:50.938Z,19.63
2023-03-30T08:29:18.811Z,27.02
2023-03-30T08:31:45.843Z,21.63
2023-03-30T08:34:13.110Z,20.92
2023-03-30T08:36:39.939Z,22.33
2023-03-30T08:39:06.900Z,15.50
2023-03-30T08:41:58.035Z,20.17
2023-03-30T08:44:42.650Z,20.35
2023-03-30T08:47:16.588Z,15.02
2023-03-30T08:49:56.134Z,16.85
2023-03-30T08:52:25.004Z,20.52
2023-03-30T08:54:52.446Z,18.65
2023-03-30T08:57:51.512Z,17.17
2023-03-30T09:00:37.742Z,18.48
2023-03-30T09:03:14.510Z,18.40
2023-03-30T09:06:00.959Z,17.75
2023-03-30T09:08:29.674Z,19.15
2023-03-30T09:10:59.705Z,18.10
2023-03-30T09:13:32.369Z,18.17
2023-03-30T09:16:05.059Z,15.93
2023-03-30T09:18:35.282Z,15.98
2023-03-30T09:21:06.156Z,17.05
2023-03-30T09:23:34.048Z,15.63
2023-03-30T09:26:16.156Z,20.77
2023-03-30T09:28:53.421Z,17.27
2023-03-30T09:31:44.359Z,20.02
2023-03-30T09:34:39.421Z,17.25
2023-03-30T09:37:18.543Z,15.43
2023-03-30T09:39:46.375Z,21.83
2023-03-30T09:42:48.036Z,17.95
2023-03-30T09:45:22.541Z,15.85
2023-03-30T09:47:49.280Z,20.10
2023-03-30T09:50:26.780Z,19.10
2023-03-30T09:53:02.087Z,18.48
2023-03-30T09:55:32.869Z,19.05
2023-03-30T09:58:21.353Z,20.83
2023-03-30T10:01:08.494Z,17.70
2023-03-30T10:03:35.934Z,20.20
2023-03-30T10:06:03.084Z,16.85
2023-03-30T10:08:30.333Z,18.63
2023-03-30T10:10:58.617Z,20.33
2023-03-30T10:13:33.331Z,18.20
2023-03-30T10:16:08.192Z,20.83
2023-03-30T10:18:38.337Z,19.33
2023-03-30T10:21:09.480Z,19.38
2023-03-30T10:23:42.750Z,14.90
2023-03-30T10:26:21.699Z,16.30
2023-03-30T10:29:03.278Z,15.95
2023-03-30T10:31:31.380Z,19.30
2023-03-30T10:34:00.743Z,19.90
2023-03-30T10:36:33.984Z,18.80
2023-03-30T10:39:14.539Z,21.02
2023-03-30T10:41:42.573Z,18.58
2023-03-30T10:44:32.300Z,20.90
2023-03-30T10:47:21.038Z,24.23
2023-03-30T10:49:58.724Z,16.48
2023-03-30T10:52:55.953Z,16.50
2023-03-30T10:55:43.336Z,18.35
2023-03-30T10:58:21.916Z,19.85
2023-03-30T11:01:07.575Z,20.75
2023-03-30T11:03:38.375Z,17.77
2023-03-30T11:06:29.085Z,16.25
2023-03-30T11:08:59.183Z,18.33
2023-03-30T11:11:36.626Z,22.33
2023-03-30T11:14:08.261Z,18.38
2023-03-30T11:16:42.314Z,18.40
2023-03-30T11:19:36.953Z,17.80
2023-03-30T11:22:12.558Z,16.63
2023-03-30T11:24:41.775Z,15.82
2023-03-30T11:27:19.030Z,13.73
2023-03-30T11:29:53.842Z,14.95
2023-03-30T11:32:39.140Z,17.05
2023-03-30T11:35:42.599Z,18.25
2023-03-30T11:38:27.322Z,14.20
2023-03-30T11:41:05.118Z,13.80
2023-03-30T11:43:32.213Z,12.70
2023-03-30T11:46:22.186Z,15.02
2023-03-30T11:48:52.020Z,17.05
2023-03-30T11:51:37.356Z,16.27
2023-03-30T11:54:21.483Z,24.25
2023-03-30T11:57:11.287Z,12.98
2023-03-30T12:00:16.537Z,14.80
2023-03-30T12:03:21.478Z,15.32
2023-03-30T12:05:51.820Z,15.15
2023-03-30T12:08:37.054Z,14.73
2023-03-30T12:11:18.304Z,14.00
2023-03-30T12:13:51.240Z,16.38
2023-03-30T12:16:28.392Z,15.20
2023-03-30T12:19:18.887Z,14.95
2023-03-30T12:21:58.668Z,14.15
2023-03-30T12:24:40.064Z,16.98
2023-03-30T12:27:11.122Z,16.02
2023-03-30T12:32:29.032Z,15.82
2023-03-30T12:34:57.822Z,15.35
2023-03-30T12:37:36.159Z,13.18
2023-03-30T12:40:10.301Z,15.63
2023-03-30T12:42:46.468Z,13.60
2023-03-30T12:45:29.294Z,13.25
2023-03-30T12:48:34.083Z,15.63
2023-03-30T12:51:13.040Z,17.20
2023-03-30T12:53:55.320Z,14.98
2023-03-30T12:56:46.485Z,14.00
2023-03-30T12:59:30.610Z,14.15
2023-03-30T13:02:23.728Z,14.10
2023-03-30T13:04:50.855Z,18.75
2023-03-30T13:07:21.977Z,19.58
2023-03-30T13:09:54.281Z,16.70
2023-03-30T13:12:29.969Z,13.73
2023-03-30T13:15:02.886Z,15.70
2023-03-30T13:17:56.971Z,11.25
2023-03-30T13:20:36.773Z,17.25
2023-03-30T13:23:15.518Z,19.10
2023-03-30T13:25:49.142Z,12.98
2023-03-30T13:28:44.338Z,12.18
2023-03-30T13:31:26.415Z,16.67
2023-03-30T13:34:11.484Z,12.15
2023-03-30T13:37:04.330Z,11.95
2023-03-30T13:39:46.580Z,11.32
2023-03-30T13:42:38.009Z,12.30
2023-03-30T13:45:26.666Z,14.60
2023-03-30T13:48:24.221Z,12.80
2023-03-30T13:50:58.476Z,15.10
2023-03-30T13:53:31.041Z,16.33
2023-03-30T13:55:58.217Z,12.45
2023-03-30T13:58:33.289Z,16.00
2023-03-30T14:01:09.846Z,12.18
2023-03-30T14:03:43.667Z,15.65
2023-03-30T14:06:13.566Z,13.40
2023-03-30T14:08:44.974Z,12.55
2023-03-30T14:11:15.254Z,12.65
2023-03-30T14:13:43.420Z,16.35
2023-03-30T14:16:17.622Z,15.38
2023-03-30T14:18:44.738Z,12.30
2023-03-30T14:21:17.480Z,16.20
2023-03-30T14:23:53.349Z,18.35
2023-03-30T14:26:26.492Z,14.15
2023-03-30T14:29:05.941Z,16.00
2023-03-30T14:31:41.265Z,16.33
2023-03-30T14:34:29.446Z,12.10
2023-03-30T14:37:04.293Z,13.85
2023-03-30T14:39:33.486Z,16.95
2023-03-30T14:42:17.555Z,13.82
2023-03-30T14:44:48.003Z,10.50
2023-03-30T14:49:44.808Z,12.35
2023-03-30T14:52:19.115Z,14.25
2023-03-30T14:55:01.873Z,17.95
2023-03-30T14:57:38.348Z,14.85
2023-03-30T15:00:17.243Z,19.88
2023-03-30T15:02:44.994Z,17.85
2023-03-30T15:05:12.011Z,15.88
2023-03-30T15:07:39.995Z,14.23
2023-03-30T15:10:07.375Z,13.50
2023-03-30T15:12:37.205Z,14.60
2023-03-30T15:15:07.643Z,19.10
2023-03-30T15:20:06.609Z,19.30
2023-03-30T15:22:37.750Z,16.38
2023-03-30T15:25:08.576Z,16.90
2023-03-30T15:27:37.887Z,16.85
2023-03-30T15:30:06.967Z,17.23
2023-03-30T15:32:43.776Z,22.25
2023-03-30T15:35:21.791Z,19.13
2023-03-30T15:38:30.802Z,16.48
2023-03-30T15:41:21.892Z,17.40
2023-03-30T15:43:59.092Z,17.65
2023-03-30T15:46:28.243Z,21.33
2023-03-30T15:48:57.684Z,23.05
2023-03-30T15:51:40.646Z,22.23
2023-03-30T15:54:13.819Z,21.90
2023-03-30T15:56:53.000Z,25.60
2023-03-30T15:59:24.891Z,24.50
2023-03-30T16:01:57.604Z,23.17
2023-03-30T16:04:25.322Z,29.45
2023-03-30T16:06:52.926Z,24.58
2023-03-30T16:09:19.889Z,23.65
2023-03-30T16:11:47.042Z,19.48
2023-03-30T16:14:20.114Z,20.63
2023-03-30T16:16:47.657Z,21.02
2023-03-30T16:19:17.426Z,23.70
2023-03-30T16:21:45.636Z,21.83
2023-03-30T16:24:13.854Z,24.02
2023-03-30T16:26:42.101Z,25.48
2023-03-30T16:29:20.347Z,33.63
2023-03-30T16:31:47.973Z,32.58
2023-03-30T16:34:18.790Z,34.85
2023-03-30T16:36:45.865Z,37.03
2023-03-30T16:39:24.691Z,31.90
2023-03-30T16:41:52.195Z,31.33
2023-03-30T16:44:21.246Z,34.80
2023-03-30T16:46:49.205Z,31.08
2023-03-30T16:49:18.665Z,32.50
2023-03-30T16:51:45.556Z,34.33
2023-03-30T16:54:23.554Z,32.50
2023-03-30T16:56:54.550Z,39.70
2023-03-30T16:59:26.936Z,35.67
2023-03-30T17:01:53.742Z,30.30
2023-03-30T17:04:20.670Z,28.80
2023-03-30T17:06:47.910Z,37.97
2023-03-30T17:09:17.639Z,40.33
2023-03-30T17:11:46.349Z,37.80
2023-03-30T17:14:13.529Z,38.28
2023-03-30T17:16:40.811Z,35.67
2023-03-30T17:19:12.256Z,38.65
2023-03-30T17:21:43.067Z,37.22
2023-03-30T17:24:13.591Z,30.60
2023-03-30T17:26:40.772Z,27.15
2023-03-30T17:29:07.615Z,26.80
2023-03-30T17:31:34.728Z,28.02
2023-03-30T17:34:01.560Z,30.98
2023-03-30T17:36:29.134Z,28.20
2023-03-30T17:38:57.578Z,46.38
2023-03-30T17:41:25.320Z,47.05
2023-03-30T17:43:52.309Z,58.72
2023-03-30T17:46:19.983Z,45.40
2023-03-30T17:48:47.009Z,47.08
2023-03-30T17:54:22.061Z,49.58
2023-03-30T17:57:02.956Z,36.80
2023-03-30T17:59:31.407Z,29.05
2023-03-30T18:01:58.146Z,28.75
2023-03-30T18:04:24.987Z,32.13
2023-03-30T18:06:52.351Z,25.30
2023-03-30T18:09:19.303Z,25.40
2023-03-30T18:11:46.307Z,25.42
2023-03-30T18:14:13.667Z,29.13
2023-03-30T18:16:43.595Z,23.42
2023-03-30T18:19:11.741Z,25.25
2023-03-30T18:21:38.451Z,28.25
2023-03-30T18:24:05.586Z,27.20
2023-03-30T18:26:33.455Z,27.73
2023-03-30T18:29:00.805Z,31.38
2023-03-30T18:31:27.561Z,24.90
2023-03-30T18:33:54.353Z,26.73
2023-03-30T18:36:22.004Z,22.95
2023-03-30T18:38:50.305Z,22.58
2023-03-30T18:41:17.049Z,26.27
2023-03-30T18:43:44.144Z,23.23
2023-03-30T18:46:14.237Z,26.25
2023-03-30T18:48:41.286Z,25.33
2023-03-30T18:51:10.995Z,23.42
2023-03-30T18:53:37.778Z,29.67
2023-03-30T18:56:04.890Z,26.38
2023-03-30T18:58:42.128Z,24.33
2023-03-30T19:01:09.730Z,28.75
2023-03-30T19:03:36.480Z,28.25
2023-03-30T19:06:03.529Z,29.95
2023-03-30T19:08:30.881Z,33.53
2023-03-30T19:10:58.099Z,36.58
2023-03-30T19:13:28.247Z,32.65
2023-03-30T19:15:56.049Z,30.92
2023-03-30T19:18:22.914Z,36.13
2023-03-30T19:20:51.016Z,33.72
2023-03-30T19:23:18.766Z,33.65
2023-03-30T19:25:46.318Z,33.78
2023-03-30T19:28:15.028Z,31.42
2023-03-30T19:30:42.497Z,30.50
2023-03-30T19:33:12.902Z,29.85
2023-03-30T19:38:08.199Z,28.15
2023-03-30T19:40:36.502Z,30.17
2023-03-30T19:43:03.324Z,34.45
2023-03-30T19:45:33.829Z,34.45
2023-03-30T19:48:00.688Z,29.90
2023-03-30T19:50:30.467Z,29.73
2023-03-30T19:52:57.990Z,30.25
2023-03-30T19:55:25.016Z,28.65
2023-03-30T19:57:51.832Z,29.85
2023-03-30T20:00:21.855Z,31.65
2023-03-30T20:02:51.946Z,30.92
2023-03-30T20:05:21.171Z,32.97
2023-03-30T20:07:51.463Z,31.92
2023-03-30T20:10:24.128Z,33.88
2023-03-30T20:12:52.014Z,32.90
2023-03-30T20:15:21.270Z,31.15
2023-03-30T20:17:48.176Z,38.92
2023-03-30T20:20:22.829Z,36.80
2023-03-30T20:22:53.361Z,35.78
2023-03-30T20:25:21.903Z,36.22
2023-03-30T20:27:49.511Z,33.05
2023-03-30T20:30:16.930Z,32.80
2023-03-30T20:32:45.220Z,35.92
2023-03-30T20:35:16.930Z,35.38
2023-03-30T20:37:43.854Z,37.50
2023-03-30T20:40:12.140Z,37.10
2023-03-30T20:42:46.659Z,37.30
2023-03-30T20:45:14.022Z,36.28
2023-03-30T20:47:40.790Z,36.58
2023-03-30T20:50:08.053Z,32.72
2023-03-30T20:52:35.453Z,34.42
2023-03-30T20:55:02.469Z,36.45
2023-03-30T20:57:29.272Z,34.03
2023-03-30T20:59:56.256Z,38.05
2023-03-30T21:02:23.131Z,36.38
2023-03-30T21:04:50.828Z,36.55
2023-03-30T21:07:18.182Z,40.05
2023-03-30T21:09:45.631Z,33.65
2023-03-30T21:12:12.590Z,38.22
2023-03-30T21:14:39.803Z,35.75
2023-03-30T21:17:06.964Z,38.03
2023-03-30T21:19:33.884Z,35.78
2023-03-30T21:22:01.185Z,37.08
2023-03-30T21:24:29.600Z,37.92
2023-03-30T21:26:56.806Z,39.90
2023-03-30T21:29:24.081Z,41.28
2023-03-30T21:31:51.039Z,36.95
2023-03-30T21:34:18.849Z,41.75
2023-03-30T21:36:46.245Z,38.65
2023-03-30T21:39:13.485Z,39.47
2023-03-30T21:41:40.572Z,40.33
2023-03-30T21:44:07.774Z,38.50
2023-03-30T21:46:34.677Z,42.67
2023-03-30T21:49:01.673Z,35.33
2023-03-30T21:51:30.382Z,41.88
2023-03-30T21:53:58.640Z,41.10
2023-03-30T21:56:29.103Z,39.67
2023-03-30T21:58:57.127Z,43.33
2023-03-30T22:01:24.432Z,41.67
2023-03-30T22:03:52.836Z,41.33
2023-03-30T22:06:20.923Z,41.33
2023-03-30T22:08:47.857Z,39.42
2023-03-30T22:11:20.287Z,42.47
2023-03-30T22:13:49.126Z,42.25
2023-03-30T22:16:19.024Z,42.15
2023-03-30T22:18:47.024Z,44.63
2023-03-30T22:21:18.492Z,47.35
2023-03-30T22:23:46.195Z,46.25
2023-03-30T22:26:13.589Z,49.63
2023-03-30T22:28:40.798Z,53.88
2023-03-30T22:31:08.890Z,51.08
2023-03-30T22:33:35.895Z,51.20
2023-03-30T22:36:03.799Z,50.85
2023-03-30T22:38:31.473Z,53.60
2023-03-30T22:41:07.934Z,51.03
2023-03-30T22:43:35.929Z,58.30
2023-03-30T22:46:04.265Z,56.60
2023-03-30T22:48:32.626Z,51.75
2023-03-30T22:51:04.034Z,53.92
2023-03-30T22:53:32.540Z,58.83
2023-03-30T22:55:59.756Z,61.55
2023-03-30T22:58:26.992Z,57.22
2023-03-30T23:00:59.928Z,54.30
2023-03-30T23:03:26.773Z,55.78
2023-03-30T23:05:53.570Z,55.10
2023-03-30T23:08:20.646Z,56.65
2023-03-30T23:10:47.328Z,54.38
2023-03-30T23:13:14.521Z,55.78
2023-03-30T23:15:42.835Z,57.35
2023-03-30T23:18:09.714Z,57.15
2023-03-30T23:20:36.950Z,54.63
2023-03-30T23:23:03.692Z,56.17
2023-03-30T23:25:30.492Z,54.45
2023-03-30T23:27:58.433Z,53.38
2023-03-30T23:30:25.641Z,60.58
2023-03-30T23:32:52.819Z,60.20
2023-03-30T23:35:19.896Z,60.83
2023-03-30T23:37:46.635Z,55.40
2023-03-30T23:40:13.401Z,60.95
2023-03-30T23:42:40.417Z,55.60
2023-03-30T23:45:08.322Z,57.22
2023-03-30T23:47:37.568Z,56.22
2023-03-30T23:50:05.481Z,56.47
2023-03-30T23:52:34.987Z,57.38
2023-03-30T23:55:02.183Z,58.37
2023-03-30T23:57:30.575Z,55.83
2023-03-30T23:59:57.394Z,52.20
